Time,TemperatureF,DewpointF,PressureIn,WindDirection,WindDirectionDegrees,WindSpeedMPH,WindSpeedGustMPH,Humidity,HourlyPrecipIn,Conditions,Clouds,dailyrainin,SolarRadiationWatts/m^2,SoftwareType,DateUTC
2013-07-05 00:01:00,72.9,70.1,30.11,North,349,0.0,0.0,91,0.00,,---,0.08,0.00,VWS V14.01,2013-07-05 04:01:00,
2013-07-05 00:06:00,72.8,70.0,30.11,North,349,0.0,0.0,91,0.00,,---,0.00,0.00,VWS V14.01,2013-07-05 04:06:00,
2013-07-05 00:11:00,72.6,69.8,30.11,North,349,0.0,0.0,91,0.00,,---,0.00,0.00,VWS V14.01,2013-07-05 04:11:00,
2013-07-05 00:16:00,72.6,70.2,30.11,North,349,0.0,0.0,92,0.00,,---,0.00,0.00,VWS V14.01,2013-07-05 04:16:00,
2013-07-05 00:21:00,72.4,69.9,30.11,North,349,0.0,0.0,92,0.00,,---,0.00,0.00,VWS V14.01,2013-07-05 04:21:00,
2013-07-05 00:26:00,72.4,69.9,30.11,North,349,0.0,0.0,92,0.00,,---,0.00,0.00,VWS V14.01,2013-07-05 04:26:00,
2013-07-05 00:31:00,72.3,69.8,30.11,North,349,0.0,0.0,92,0.00,,---,0.00,0.00,VWS V14.01,2013-07-05 04:31:00,
2013-07-05 00:36:00,72.3,69.8,30.11,North,349,0.0,0.0,92,0.00,,---,0.00,0.00,VWS V14.01,2013-07-05 04:36:00,
2013-07-05 00:41:00,72.1,69.7,30.11,North,349,0.0,0.0,92,0.00,,---,0.00,0.00,VWS V14.01,2013-07-05 04:41:00,
2013-07-05 00:46:00,72.1,69.7,30.10,North,349,0.0,0.0,92,0.00,,---,0.00,0.00,VWS V14.01,2013-07-05 04:46:00,
2013-07-05 00:51:00,71.9,69.4,30.10,North,349,0.0,0.0,92,0.00,,---,0.00,0.00,VWS V14.01,2013-07-05 04:51:00,
2013-07-05 00:56:00,71.9,69.4,30.10,North,349,0.0,0.0,92,0.00,,---,0.00,0.00,VWS V14.01,2013-07-05 04:56:00,
2013-07-05 01:01:00,71.7,69.6,30.10,North,349,0.0,0.0,93,0.00,,---,0.00,0.00,VWS V14.01,2013-07-05 05:01:00,
2013-07-05 01:06:00,71.7,69.6,30.10,North,349,0.0,0.0,93,0.00,,---,0.00,0.00,VWS V14.01,2013-07-05 05:06:00,
2013-07-05 01:11:00,71.7,69.6,30.11,North,349,0.0,0.0,93,0.00,,---,0.00,0.00,VWS V14.01,2013-07-05 05:11:00,
2013-07-05 01:16:00,71.6,69.5,30.11,North,349,0.0,0.0,93,0.00,,---,0.00,0.00,VWS V14.01,2013-07-05 05:16:00,
2013-07-05 01:21:00,71.6,69.5,30.11,North,349,0.0,0.0,93,0.00,,---,0.00,0.00,VWS V14.01,2013-07-05 05:21:00,
2013-07-05 01:26:00,71.4,69.3,30.10,North,349,0.0,0.0,93,0.00,,---,0.00,0.00,VWS V14.01,2013-07-05 05:26:00,
2013-07-05 01:31:00,71.4,69.3,30.10,North,349,0.0,0.0,93,0.00,,---,0.00,0.00,VWS V14.01,2013-07-05 05:31:00,
2013-07-05 01:36:00,71.2,69.1,30.10,North,349,0.0,0.0,93,0.00,,---,0.00,0.00,VWS V14.01,2013-07-05 05:36:00,
2013-07-05 01:41:00,71.2,69.1,30.10,North,349,0.0,0.0,93,0.00,,---,0.00,0.00,VWS V14.01,2013-07-05 05:41:00,
2013-07-05 01:46:00,71.2,69.1,30.10,North,349,0.0,0.0,93,0.00,,---,0.00,0.00,VWS V14.01,2013-07-05 05:46:00,
2013-07-05 01:51:00,71.1,69.0,30.10,North,349,0.0,0.0,93,0.00,,---,0.00,0.00,VWS V14.01,2013-07-05 05:51:00,
2013-07-05 01:56:00,71.1,69.0,30.10,North,349,0.0,0.0,93,0.00,,---,0.00,0.00,VWS V14.01,2013-07-05 05:56:00,
2013-07-05 02:01:00,70.9,68.8,30.10,North,349,0.0,0.0,93,0.00,,---,0.00,0.00,VWS V14.01,2013-07-05 06:01:00,
2013-07-05 02:06:00,70.9,68.8,30.10,North,349,0.0,0.0,93,0.00,,---,0.00,0.00,VWS V14.01,2013-07-05 06:06:00,
2013-07-05 02:11:00,70.9,68.8,30.10,North,349,0.0,0.0,93,0.00,,---,0.00,0.00,VWS V14.01,2013-07-05 06:11:00,
2013-07-05 02:16:00,70.9,68.8,30.10,North,349,0.0,0.0,93,0.00,,---,0.00,0.00,VWS V14.01,2013-07-05 06:16:00,
2013-07-05 02:21:00,70.9,68.8,30.10,North,349,0.0,0.0,93,0.00,,---,0.00,0.00,VWS V14.01,2013-07-05 06:21:00,
2013-07-05 02:26:00,70.9,68.8,30.10,North,349,0.0,0.0,93,0.00,,---,0.00,0.00,VWS V14.01,2013-07-05 06:26:00,
2013-07-05 02:31:00,70.9,69.1,30.10,North,349,0.0,0.0,94,0.00,,---,0.00,0.00,VWS V14.01,2013-07-05 06:31:00,
2013-07-05 02:36:00,70.9,69.1,30.10,North,349,0.0,0.0,94,0.00,,---,0.00,0.00,VWS V14.01,2013-07-05 06:36:00,
2013-07-05 02:41:00,70.9,69.1,30.10,North,349,0.0,0.0,94,0.00,,---,0.00,0.00,VWS V14.01,2013-07-05 06:41:00,
2013-07-05 02:46:00,70.9,69.1,30.11,North,349,0.0,0.0,94,0.00,,---,0.00,0.00,VWS V14.01,2013-07-05 06:46:00,
2013-07-05 02:51:00,70.9,69.1,30.11,North,349,0.0,0.0,94,0.00,,---,0.00,0.00,VWS V14.01,2013-07-05 06:51:00,
2013-07-05 02:56:00,70.9,69.1,30.11,North,349,0.0,0.0,94,0.00,,---,0.00,0.00,VWS V14.01,2013-07-05 06:56:00,
2013-07-05 03:02:00,70.7,68.9,30.11,North,349,0.0,0.0,94,0.00,,---,0.00,0.00,VWS V14.01,2013-07-05 07:02:00,
2013-07-05 03:07:00,70.7,68.9,30.11,North,349,0.0,0.0,94,0.00,,---,0.00,0.00,VWS V14.01,2013-07-05 07:07:00,
2013-07-05 03:11:00,70.7,68.9,30.11,North,349,0.0,0.0,94,0.00,,---,0.00,0.00,VWS V14.01,2013-07-05 07:11:00,
2013-07-05 03:17:00,70.7,68.9,30.11,North,349,0.0,0.0,94,0.00,,---,0.00,0.00,VWS V14.01,2013-07-05 07:17:00,
2013-07-05 03:22:00,70.5,68.7,30.11,North,349,0.0,0.0,94,0.00,,---,0.00,0.00,VWS V14.01,2013-07-05 07:22:00,
2013-07-05 03:27:00,70.5,68.7,30.11,North,349,0.0,0.0,94,0.00,,---,0.00,0.00,VWS V14.01,2013-07-05 07:27:00,
2013-07-05 03:32:00,70.4,68.6,30.11,North,349,0.0,0.0,94,0.00,,---,0.00,0.00,VWS V14.01,2013-07-05 07:32:00,
2013-07-05 03:37:00,70.4,68.6,30.11,North,349,0.0,0.0,94,0.00,,---,0.00,0.00,VWS V14.01,2013-07-05 07:37:00,
2013-07-05 03:42:00,70.2,68.4,30.11,North,349,0.0,0.0,94,0.00,,---,0.00,0.00,VWS V14.01,2013-07-05 07:42:00,
2013-07-05 03:47:00,70.2,68.4,30.11,North,349,0.0,0.0,94,0.00,,---,0.00,0.00,VWS V14.01,2013-07-05 07:47:00,
2013-07-05 03:52:00,70.2,68.4,30.11,North,349,0.0,0.0,94,0.00,,---,0.00,0.00,VWS V14.01,2013-07-05 07:52:00,
2013-07-05 03:57:00,70.0,68.5,30.11,North,349,0.0,0.0,95,0.00,,---,0.00,0.00,VWS V14.01,2013-07-05 07:57:00,
2013-07-05 04:02:00,70.0,68.5,30.11,North,349,0.0,0.0,95,0.00,,---,0.00,0.00,VWS V14.01,2013-07-05 08:02:00,
2013-07-05 04:07:00,70.0,68.5,30.11,North,349,0.0,0.0,95,0.00,,---,0.00,0.00,VWS V14.01,2013-07-05 08:07:00,
2013-07-05 04:12:00,69.9,68.4,30.11,North,349,0.0,0.0,95,0.00,,---,0.00,0.00,VWS V14.01,2013-07-05 08:12:00,
2013-07-05 04:17:00,69.9,68.4,30.11,North,349,0.0,0.0,95,0.00,,---,0.00,0.00,VWS V14.01,2013-07-05 08:17:00,
2013-07-05 04:22:00,69.9,68.4,30.11,North,349,0.0,0.0,95,0.00,,---,0.00,0.00,VWS V14.01,2013-07-05 08:22:00,
2013-07-05 04:27:00,69.7,68.2,30.11,North,349,0.0,0.0,95,0.00,,---,0.00,0.00,VWS V14.01,2013-07-05 08:27:00,
2013-07-05 04:32:00,69.7,68.2,30.11,North,349,0.0,0.0,95,0.00,,---,0.00,0.00,VWS V14.01,2013-07-05 08:32:00,
2013-07-05 04:37:00,69.7,68.2,30.11,North,349,0.0,0.0,95,0.00,,---,0.00,0.00,VWS V14.01,2013-07-05 08:37:00,
2013-07-05 04:42:00,69.7,68.2,30.11,North,349,0.0,0.0,95,0.00,,---,0.00,0.00,VWS V14.01,2013-07-05 08:42:00,
2013-07-05 04:47:00,69.9,68.4,30.12,North,349,0.0,0.0,95,0.00,,---,0.00,0.00,VWS V14.01,2013-07-05 08:47:00,
2013-07-05 04:52:00,69.9,68.4,30.12,North,349,0.0,0.0,95,0.00,,---,0.00,0.00,VWS V14.01,2013-07-05 08:52:00,
2013-07-05 04:57:00,69.9,68.4,30.12,North,349,0.0,0.0,95,0.00,,---,0.00,0.00,VWS V14.01,2013-07-05 08:57:00,
2013-07-05 05:02:00,69.9,68.4,30.12,North,349,0.0,0.0,95,0.00,,---,0.00,0.00,VWS V14.01,2013-07-05 09:02:00,
2013-07-05 05:07:00,69.9,68.4,30.12,North,349,0.0,0.0,95,0.00,,---,0.00,0.00,VWS V14.01,2013-07-05 09:07:00,
2013-07-05 05:13:00,69.9,68.4,30.12,North,349,0.0,0.0,95,0.00,,---,0.00,0.00,VWS V14.01,2013-07-05 09:13:00,
2013-07-05 05:18:00,69.9,68.4,30.12,North,349,0.0,0.0,95,0.00,,---,0.00,0.00,VWS V14.01,2013-07-05 09:18:00,
2013-07-05 05:23:00,69.9,68.4,30.12,North,349,0.0,0.0,95,0.00,,---,0.00,0.00,VWS V14.01,2013-07-05 09:23:00,
2013-07-05 05:28:00,69.9,68.4,30.12,North,349,0.0,0.0,95,0.00,,---,0.00,5.00,VWS V14.01,2013-07-05 09:28:00,
2013-07-05 05:33:00,69.9,68.4,30.12,North,349,0.0,0.0,95,0.00,,---,0.00,7.00,VWS V14.01,2013-07-05 09:33:00,
2013-07-05 05:38:00,69.9,68.4,30.13,North,349,0.0,0.0,95,0.00,,---,0.00,9.00,VWS V14.01,2013-07-05 09:38:00,
2013-07-05 05:43:00,69.9,68.4,30.13,North,349,0.0,0.0,95,0.00,,---,0.00,12.00,VWS V14.01,2013-07-05 09:43:00,
2013-07-05 05:48:00,69.9,68.7,30.12,North,349,0.0,0.0,96,0.00,,---,0.00,14.00,VWS V14.01,2013-07-05 09:48:00,
2013-07-05 05:53:00,69.7,68.5,30.12,North,349,0.0,0.0,96,0.00,,---,0.00,16.00,VWS V14.01,2013-07-05 09:53:00,
2013-07-05 05:58:00,69.7,68.5,30.13,North,349,0.0,0.0,96,0.00,,---,0.00,18.00,VWS V14.01,2013-07-05 09:58:00,
2013-07-05 06:03:00,69.7,68.5,30.13,North,349,0.0,0.0,96,0.00,,---,0.00,19.00,VWS V14.01,2013-07-05 10:03:00,
2013-07-05 06:08:00,69.7,68.5,30.13,North,349,0.0,0.0,96,0.00,,---,0.00,21.00,VWS V14.01,2013-07-05 10:08:00,
2013-07-05 06:13:00,69.9,68.7,30.13,North,349,0.0,0.0,96,0.00,,---,0.00,23.00,VWS V14.01,2013-07-05 10:13:00,
2013-07-05 06:18:00,69.9,68.7,30.13,North,349,0.0,0.0,96,0.00,,---,0.00,23.00,VWS V14.01,2013-07-05 10:18:00,
2013-07-05 06:23:00,70.0,68.8,30.13,North,349,0.0,0.0,96,0.00,,---,0.00,25.00,VWS V14.01,2013-07-05 10:23:00,
2013-07-05 06:29:00,70.0,68.8,30.14,North,349,0.0,0.0,96,0.00,,---,0.00,26.00,VWS V14.01,2013-07-05 10:29:00,
2013-07-05 06:34:00,70.0,68.8,30.13,North,349,0.0,0.0,96,0.00,,---,0.00,28.00,VWS V14.01,2013-07-05 10:34:00,
2013-07-05 06:39:00,70.2,69.0,30.13,North,349,0.0,0.0,96,0.00,,---,0.00,28.00,VWS V14.01,2013-07-05 10:39:00,
2013-07-05 06:44:00,70.2,69.0,30.14,North,349,0.0,0.0,96,0.00,,---,0.00,30.00,VWS V14.01,2013-07-05 10:44:00,
2013-07-05 06:49:00,70.4,69.2,30.14,North,349,0.0,0.0,96,0.00,,---,0.00,32.00,VWS V14.01,2013-07-05 10:49:00,
2013-07-05 06:54:00,70.5,69.3,30.14,North,349,0.0,0.0,96,0.00,,---,0.00,33.00,VWS V14.01,2013-07-05 10:54:00,
2013-07-05 06:59:00,70.7,69.8,30.14,North,349,0.0,0.0,97,0.00,,---,0.00,35.00,VWS V14.01,2013-07-05 10:59:00,
2013-07-05 07:04:00,70.9,70.0,30.14,North,349,0.0,0.0,97,0.00,,---,0.00,37.00,VWS V14.01,2013-07-05 11:04:00,
2013-07-05 07:09:00,71.1,70.2,30.14,North,349,0.0,0.0,97,0.00,,---,0.00,37.00,VWS V14.01,2013-07-05 11:09:00,
2013-07-05 07:14:00,71.2,70.3,30.14,North,349,0.0,0.0,97,0.00,,---,0.00,39.00,VWS V14.01,2013-07-05 11:14:00,
2013-07-05 07:19:00,71.2,70.3,30.14,North,349,0.0,0.0,97,0.00,,---,0.00,40.00,VWS V14.01,2013-07-05 11:19:00,
2013-07-05 07:25:00,71.4,70.5,30.14,North,349,0.0,0.0,97,0.00,,---,0.00,40.00,VWS V14.01,2013-07-05 11:25:00,
2013-07-05 07:30:00,71.6,70.7,30.14,North,349,0.0,0.0,97,0.00,,---,0.00,42.00,VWS V14.01,2013-07-05 11:30:00,
2013-07-05 07:35:00,71.7,70.8,30.14,North,349,0.0,0.0,97,0.00,,---,0.00,42.00,VWS V14.01,2013-07-05 11:35:00,
2013-07-05 07:40:00,71.9,71.0,30.14,North,349,0.0,0.0,97,0.00,,---,0.00,44.00,VWS V14.01,2013-07-05 11:40:00,
2013-07-05 07:45:00,72.1,71.2,30.14,North,349,0.0,0.0,97,0.00,,---,0.00,46.00,VWS V14.01,2013-07-05 11:45:00,
2013-07-05 07:50:00,72.1,71.2,30.14,North,349,0.0,0.0,97,0.00,,---,0.00,51.00,VWS V14.01,2013-07-05 11:50:00,
2013-07-05 07:55:00,72.4,71.5,30.14,North,349,0.0,0.0,97,0.00,,---,0.00,49.00,VWS V14.01,2013-07-05 11:55:00,
2013-07-05 08:00:00,72.6,71.7,30.14,North,349,0.0,0.0,97,0.00,,---,0.00,53.00,VWS V14.01,2013-07-05 12:00:00,
2013-07-05 08:05:00,72.8,71.9,30.14,North,349,0.0,0.0,97,0.00,,---,0.00,86.00,VWS V14.01,2013-07-05 12:05:00,
2013-07-05 08:10:00,72.9,72.0,30.14,North,349,0.0,0.0,97,0.00,,---,0.00,323.00,VWS V14.01,2013-07-05 12:10:00,
2013-07-05 08:15:00,73.1,72.2,30.14,North,349,0.0,0.0,97,0.00,,---,0.00,153.00,VWS V14.01,2013-07-05 12:15:00,
2013-07-05 08:21:00,73.6,72.7,30.14,North,349,0.0,0.0,97,0.00,,---,0.00,415.00,VWS V14.01,2013-07-05 12:21:00,
2013-07-05 08:26:00,74.0,73.1,30.14,North,349,0.0,0.0,97,0.00,,---,0.00,448.00,VWS V14.01,2013-07-05 12:26:00,
2013-07-05 08:31:00,74.5,73.6,30.14,North,349,0.0,0.0,97,0.00,,---,0.00,462.00,VWS V14.01,2013-07-05 12:31:00,
2013-07-05 08:36:00,75.0,74.1,30.14,North,349,0.0,0.0,97,0.00,,---,0.00,492.00,VWS V14.01,2013-07-05 12:36:00,
2013-07-05 08:41:00,75.6,74.7,30.14,North,349,0.0,0.0,97,0.00,,---,0.00,520.00,VWS V14.01,2013-07-05 12:41:00,
2013-07-05 08:46:00,76.1,75.2,30.13,North,349,0.0,0.0,97,0.00,,---,0.00,536.00,VWS V14.01,2013-07-05 12:46:00,
2013-07-05 08:51:00,76.6,75.4,30.13,North,349,0.0,0.0,96,0.00,,---,0.00,554.00,VWS V14.01,2013-07-05 12:51:00,
2013-07-05 08:57:00,77.2,75.7,30.13,North,350,0.0,0.0,95,0.00,,---,0.00,561.00,VWS V14.01,2013-07-05 12:57:00,
2013-07-05 09:02:00,77.5,75.3,30.13,North,350,0.0,0.0,93,0.00,,---,0.00,582.00,VWS V14.01,2013-07-05 13:02:00,
2013-07-05 09:07:00,78.2,75.4,30.13,North,349,0.0,0.0,91,0.00,,---,0.00,596.00,VWS V14.01,2013-07-05 13:07:00,
2013-07-05 09:12:00,78.8,74.9,30.13,North,349,0.0,0.0,88,0.00,,---,0.00,612.00,VWS V14.01,2013-07-05 13:12:00,
2013-07-05 09:17:00,79.5,74.2,30.13,North,350,0.0,0.0,84,0.00,,---,0.00,629.00,VWS V14.01,2013-07-05 13:17:00,
2013-07-05 09:22:00,80.3,73.9,30.13,North,355,0.0,0.0,81,0.00,,---,0.00,645.00,VWS V14.01,2013-07-05 13:22:00,
2013-07-05 09:27:00,81.0,74.2,30.13,North,355,0.0,0.0,80,0.00,,---,0.00,663.00,VWS V14.01,2013-07-05 13:27:00,
2013-07-05 09:32:00,81.6,73.3,30.13,North,355,0.0,0.0,76,0.00,,---,0.00,624.00,VWS V14.01,2013-07-05 13:32:00,
2013-07-05 09:37:00,82.2,73.1,30.13,North,355,0.0,0.0,74,0.00,,---,0.00,737.00,VWS V14.01,2013-07-05 13:37:00,
2013-07-05 09:42:00,82.8,72.9,30.13,North,355,0.0,0.0,72,0.00,,---,0.00,737.00,VWS V14.01,2013-07-05 13:42:00,
2013-07-05 09:47:00,83.4,72.6,30.12,NNW,346,0.0,0.0,70,0.00,,---,0.00,740.00,VWS V14.01,2013-07-05 13:47:00,
2013-07-05 09:52:00,83.9,73.9,30.12,NNW,347,0.0,0.0,72,0.00,,---,0.00,742.00,VWS V14.01,2013-07-05 13:52:00,
2013-07-05 09:57:00,84.3,73.0,30.12,NNW,347,0.0,0.0,69,0.00,,---,0.00,735.00,VWS V14.01,2013-07-05 13:57:00,
2013-07-05 10:02:00,84.7,72.1,30.12,North,355,0.0,0.0,66,0.00,,---,0.00,768.00,VWS V14.01,2013-07-05 14:02:00,
2013-07-05 10:07:00,85.1,72.9,30.12,North,355,0.0,0.0,67,0.00,,---,0.00,761.00,VWS V14.01,2013-07-05 14:07:00,
2013-07-05 10:12:00,85.1,72.5,30.12,North,355,0.0,0.0,66,0.00,,---,0.00,777.00,VWS V14.01,2013-07-05 14:12:00,
2013-07-05 10:18:00,85.3,72.2,30.12,North,351,0.0,0.0,65,0.00,,---,0.00,782.00,VWS V14.01,2013-07-05 14:18:00,
2013-07-05 10:23:00,85.7,73.0,30.12,North,350,0.0,0.0,66,0.00,,---,0.00,796.00,VWS V14.01,2013-07-05 14:23:00,
2013-07-05 10:28:00,85.9,72.8,30.12,NNW,343,0.0,0.0,65,0.00,,---,0.00,844.00,VWS V14.01,2013-07-05 14:28:00,
2013-07-05 10:33:00,86.3,73.6,30.12,NNW,346,0.0,0.0,66,0.00,,---,0.00,886.00,VWS V14.01,2013-07-05 14:33:00,
2013-07-05 10:39:00,86.6,73.9,30.12,North,9,0.0,0.0,66,0.00,,---,0.00,861.00,VWS V14.01,2013-07-05 14:39:00,
2013-07-05 10:44:00,86.8,74.1,30.12,WSW,240,0.0,0.0,66,0.00,,---,0.00,842.00,VWS V14.01,2013-07-05 14:44:00,
2013-07-05 10:49:00,87.0,73.4,30.12,WSW,240,0.0,0.0,64,0.00,,---,0.00,867.00,VWS V14.01,2013-07-05 14:49:00,
2013-07-05 10:54:00,87.2,73.1,30.12,WSW,240,0.0,0.0,63,0.00,,---,0.00,858.00,VWS V14.01,2013-07-05 14:54:00,
2013-07-05 10:59:00,87.4,72.8,30.11,SSW,198,0.0,0.0,62,0.00,,---,0.00,870.00,VWS V14.01,2013-07-05 14:59:00,
2013-07-05 11:04:00,87.8,74.1,30.11,South,188,0.0,0.0,64,0.00,,---,0.00,875.00,VWS V14.01,2013-07-05 15:04:00,
2013-07-05 11:09:00,87.8,72.7,30.11,South,188,0.0,0.0,61,0.00,,---,0.00,914.00,VWS V14.01,2013-07-05 15:09:00,
2013-07-05 11:14:00,88.0,73.4,30.11,SSW,196,0.0,0.0,62,0.00,,---,0.00,895.00,VWS V14.01,2013-07-05 15:14:00,
2013-07-05 11:19:00,88.2,73.1,30.11,SSW,204,0.0,0.0,61,0.00,,---,0.00,907.00,VWS V14.01,2013-07-05 15:19:00,
2013-07-05 11:24:00,88.2,71.6,30.11,South,185,0.0,0.0,58,0.00,,---,0.00,907.00,VWS V14.01,2013-07-05 15:24:00,
2013-07-05 11:29:00,88.4,73.2,30.11,South,185,0.0,0.0,61,0.00,,---,0.00,926.00,VWS V14.01,2013-07-05 15:29:00,
2013-07-05 11:34:00,88.9,72.2,30.11,South,185,0.0,0.0,58,0.00,,---,0.00,921.00,VWS V14.01,2013-07-05 15:34:00,
2013-07-05 11:39:00,88.9,72.2,30.11,South,182,0.0,0.0,58,0.00,,---,0.00,944.00,VWS V14.01,2013-07-05 15:39:00,
2013-07-05 11:44:00,88.9,70.1,30.10,South,182,0.0,0.0,54,0.00,,---,0.00,958.00,VWS V14.01,2013-07-05 15:44:00,
2013-07-05 11:49:00,89.1,72.9,30.10,SSW,199,0.0,0.0,59,0.00,,---,0.00,954.00,VWS V14.01,2013-07-05 15:49:00,
2013-07-05 11:50:00,89.1,71.9,30.10,SSW,199,0.0,0.0,57,0.00,,---,0.00,946.00,VWS V14.01,2013-07-05 15:50:00,
2013-07-05 11:55:00,89.1,71.4,30.10,ESE,111,0.0,0.0,56,0.00,,---,0.00,944.00,VWS V14.01,2013-07-05 15:55:00,
2013-07-05 12:00:00,89.3,72.6,30.10,ESE,113,0.0,0.0,58,0.00,,---,0.00,951.00,VWS V14.01,2013-07-05 16:00:00,
2013-07-05 12:05:00,89.3,71.6,30.10,ESE,113,0.0,0.0,56,0.00,,---,0.00,960.00,VWS V14.01,2013-07-05 16:05:00,
2013-07-05 12:10:00,89.5,73.8,30.10,ESE,113,0.0,0.0,60,0.00,,---,0.00,956.00,VWS V14.01,2013-07-05 16:10:00,
2013-07-05 12:15:00,89.7,74.0,30.10,NNE,28,0.0,3.0,60,0.00,,---,0.00,977.00,VWS V14.01,2013-07-05 16:15:00,
2013-07-05 12:20:00,89.7,73.5,30.09,NNE,29,0.0,0.0,59,0.00,,---,0.00,972.00,VWS V14.01,2013-07-05 16:20:00,
2013-07-05 12:21:00,89.7,73.5,30.09,NNE,28,0.0,0.0,59,0.00,,---,0.00,972.00,VWS V14.01,2013-07-05 16:21:00,
2013-07-05 12:26:00,89.9,72.6,30.09,NNE,28,0.0,0.0,57,0.00,,---,0.00,977.00,VWS V14.01,2013-07-05 16:26:00,
2013-07-05 12:31:00,90.1,73.8,30.09,NNE,27,0.0,0.0,59,0.00,,---,0.00,988.00,VWS V14.01,2013-07-05 16:31:00,
2013-07-05 12:36:00,90.3,74.0,30.09,NNE,26,0.0,0.0,59,0.00,,---,0.00,1058.00,VWS V14.01,2013-07-05 16:36:00,
2013-07-05 12:41:00,90.1,72.8,30.09,NNE,23,0.0,0.0,57,0.00,,---,0.00,318.00,VWS V14.01,2013-07-05 16:41:00,
2013-07-05 12:46:00,89.9,72.6,30.09,North,5,0.0,0.0,57,0.00,,---,0.00,993.00,VWS V14.01,2013-07-05 16:46:00,
2013-07-05 12:51:00,90.1,73.8,30.09,North,360,0.0,0.0,59,0.00,,---,0.00,979.00,VWS V14.01,2013-07-05 16:51:00,
2013-07-05 12:56:00,90.6,74.3,30.08,North,5,0.0,0.0,59,0.00,,---,0.00,1000.00,VWS V14.01,2013-07-05 16:56:00,
2013-07-05 13:01:00,90.6,72.2,30.09,North,5,0.0,0.0,55,0.00,,---,0.00,93.00,VWS V14.01,2013-07-05 17:01:00,
2013-07-05 13:06:00,90.8,71.9,30.08,North,5,0.0,0.0,54,0.00,,---,0.00,1004.00,VWS V14.01,2013-07-05 17:06:00,
2013-07-05 13:11:00,90.8,74.0,30.08,North,9,0.0,0.0,58,0.00,,---,0.00,1049.00,VWS V14.01,2013-07-05 17:11:00,
2013-07-05 13:16:00,90.8,71.9,30.08,East,100,0.0,0.0,54,0.00,,---,0.00,1116.00,VWS V14.01,2013-07-05 17:16:00,
2013-07-05 13:21:00,90.8,72.4,30.08,South,170,0.0,0.0,55,0.00,,---,0.00,1011.00,VWS V14.01,2013-07-05 17:21:00,
2013-07-05 13:26:00,90.8,70.8,30.07,South,169,0.0,0.0,52,0.00,,---,0.00,998.00,VWS V14.01,2013-07-05 17:26:00,
2013-07-05 13:31:00,90.8,72.4,30.07,South,169,0.0,0.0,55,0.00,,---,0.00,1035.00,VWS V14.01,2013-07-05 17:31:00,
2013-07-05 13:36:00,90.8,71.9,30.07,SSE,163,0.0,0.0,54,0.00,,---,0.00,993.00,VWS V14.01,2013-07-05 17:36:00,
2013-07-05 13:41:00,90.8,71.9,30.07,SSE,161,0.0,0.0,54,0.00,,---,0.00,993.00,VWS V14.01,2013-07-05 17:41:00,
2013-07-05 13:46:00,91.0,73.1,30.07,SSE,161,0.0,0.0,56,0.00,,---,0.00,1150.00,VWS V14.01,2013-07-05 17:46:00,
2013-07-05 13:51:00,90.6,70.6,30.07,SSE,161,0.0,0.0,52,0.00,,---,0.00,176.00,VWS V14.01,2013-07-05 17:51:00,
2013-07-05 13:56:00,90.1,71.2,30.07,SSE,161,0.0,0.0,54,0.00,,---,0.00,225.00,VWS V14.01,2013-07-05 17:56:00,
2013-07-05 14:01:00,89.9,73.2,30.07,SSE,161,0.0,0.0,58,0.00,,---,0.00,276.00,VWS V14.01,2013-07-05 18:01:00,
2013-07-05 14:06:00,89.7,73.5,30.07,SSE,161,0.0,0.0,59,0.00,,---,0.00,290.00,VWS V14.01,2013-07-05 18:06:00,
2013-07-05 14:11:00,89.3,73.1,30.06,SE,125,0.0,0.0,59,0.00,,---,0.00,220.00,VWS V14.01,2013-07-05 18:11:00,
2013-07-05 14:16:00,88.9,72.7,30.06,SE,125,0.0,0.0,59,0.00,,---,0.00,144.00,VWS V14.01,2013-07-05 18:16:00,
2013-07-05 14:21:00,88.2,73.6,30.06,ENE,72,0.0,0.0,62,0.00,,---,0.00,156.00,VWS V14.01,2013-07-05 18:21:00,
2013-07-05 14:26:00,87.8,74.1,30.06,WNW,288,1.0,1.0,64,0.00,,---,0.00,768.00,VWS V14.01,2013-07-05 18:26:00,
2013-07-05 14:31:00,87.6,73.5,30.06,WNW,288,0.0,1.0,63,0.00,,---,0.00,352.00,VWS V14.01,2013-07-05 18:31:00,
2013-07-05 14:36:00,87.6,74.8,30.06,WNW,288,0.0,0.0,66,0.00,,---,0.00,288.00,VWS V14.01,2013-07-05 18:36:00,
2013-07-05 14:41:00,87.4,71.3,30.06,SSW,213,0.0,0.0,59,0.00,,---,0.00,1011.00,VWS V14.01,2013-07-05 18:41:00,
2013-07-05 14:46:00,87.8,73.2,30.06,SSW,213,0.0,0.0,62,0.00,,---,0.00,1034.00,VWS V14.01,2013-07-05 18:46:00,
2013-07-05 14:51:00,87.8,72.7,30.05,SSW,213,0.0,0.0,61,0.00,,---,0.00,123.00,VWS V14.01,2013-07-05 18:51:00,
2013-07-05 14:56:00,87.6,72.0,30.05,SSW,213,0.0,0.0,60,0.00,,---,0.00,162.00,VWS V14.01,2013-07-05 18:56:00,
2013-07-05 15:01:00,87.6,73.5,30.05,SSW,213,0.0,0.0,63,0.00,,---,0.00,995.00,VWS V14.01,2013-07-05 19:01:00,
2013-07-05 15:06:00,87.8,74.1,30.05,SW,216,0.0,0.0,64,0.00,,---,0.00,946.00,VWS V14.01,2013-07-05 19:06:00,
2013-07-05 15:11:00,88.0,72.4,30.05,SSW,206,0.0,3.0,60,0.00,,---,0.00,144.00,VWS V14.01,2013-07-05 19:11:00,
2013-07-05 15:16:00,88.0,71.4,30.05,SSW,206,0.0,3.0,58,0.00,,---,0.00,178.00,VWS V14.01,2013-07-05 19:16:00,
2013-07-05 15:21:00,88.2,71.6,30.05,SSW,206,0.0,0.0,58,0.00,,---,0.00,842.00,VWS V14.01,2013-07-05 19:21:00,
2013-07-05 15:26:00,88.9,74.2,30.05,SSW,206,0.0,1.0,62,0.00,,---,0.00,817.00,VWS V14.01,2013-07-05 19:26:00,
2013-07-05 15:31:00,89.5,73.8,30.04,SSW,206,3.0,3.0,60,0.00,,---,0.00,824.00,VWS V14.01,2013-07-05 19:31:00,
2013-07-05 15:36:00,89.9,73.7,30.04,SSE,156,0.0,3.0,59,0.00,,---,0.00,810.00,VWS V14.01,2013-07-05 19:36:00,
2013-07-05 15:41:00,90.3,73.0,30.04,SSE,157,0.0,3.0,57,0.00,,---,0.00,788.00,VWS V14.01,2013-07-05 19:41:00,
2013-07-05 15:46:00,90.8,72.9,30.04,SSE,157,0.0,3.0,56,0.00,,---,0.00,784.00,VWS V14.01,2013-07-05 19:46:00,
2013-07-05 15:51:00,91.2,73.3,30.04,West,259,0.0,1.0,56,0.00,,---,0.00,765.00,VWS V14.01,2013-07-05 19:51:00,
2013-07-05 15:56:00,91.2,73.3,30.04,West,261,0.0,1.0,56,0.00,,---,0.00,751.00,VWS V14.01,2013-07-05 19:56:00,
2013-07-05 16:01:00,91.2,72.8,30.03,West,261,0.0,1.0,55,0.00,,---,0.00,742.00,VWS V14.01,2013-07-05 20:01:00,
2013-07-05 16:02:00,91.2,72.8,30.03,West,261,0.0,1.0,55,0.00,,---,0.00,742.00,VWS V14.01,2013-07-05 20:02:00,
2013-07-05 16:07:00,91.4,72.4,30.03,West,259,0.0,0.0,54,0.00,,---,0.00,735.00,VWS V14.01,2013-07-05 20:07:00,
2013-07-05 16:12:00,91.4,71.3,30.03,West,260,0.0,1.0,52,0.00,,---,0.00,715.00,VWS V14.01,2013-07-05 20:12:00,
2013-07-05 16:17:00,91.4,71.9,30.03,West,259,0.0,1.0,53,0.00,,---,0.00,715.00,VWS V14.01,2013-07-05 20:17:00,
2013-07-05 16:22:00,91.4,73.0,30.03,SE,140,0.0,2.0,55,0.00,,---,0.00,684.00,VWS V14.01,2013-07-05 20:22:00,
2013-07-05 16:27:00,91.2,71.7,30.04,SE,144,0.0,2.0,53,0.00,,---,0.00,120.00,VWS V14.01,2013-07-05 20:27:00,
2013-07-05 16:32:00,91.0,70.9,30.03,SE,144,0.0,0.0,52,0.00,,---,0.00,345.00,VWS V14.01,2013-07-05 20:32:00,
2013-07-05 16:37:00,90.6,69.4,30.03,SE,144,1.0,1.0,50,0.00,,---,0.00,220.00,VWS V14.01,2013-07-05 20:37:00,
2013-07-05 16:42:00,90.3,70.9,30.03,West,275,0.0,1.0,53,0.00,,---,0.00,67.00,VWS V14.01,2013-07-05 20:42:00,
2013-07-05 16:47:00,89.9,71.6,30.03,West,275,0.0,0.0,55,0.00,,---,0.00,146.00,VWS V14.01,2013-07-05 20:47:00,
2013-07-05 16:52:00,89.5,71.2,30.03,West,275,0.0,0.0,55,0.00,,---,0.00,111.00,VWS V14.01,2013-07-05 20:52:00,
2013-07-05 16:57:00,89.1,70.8,30.03,NNW,346,0.0,0.0,55,0.00,,---,0.00,91.00,VWS V14.01,2013-07-05 20:57:00,
2013-07-05 17:02:00,88.6,71.4,30.02,NNW,346,0.0,0.0,57,0.00,,---,0.00,113.00,VWS V14.01,2013-07-05 21:02:00,
2013-07-05 17:07:00,88.4,70.7,30.02,NNW,346,0.0,0.0,56,0.00,,---,0.00,79.00,VWS V14.01,2013-07-05 21:07:00,
2013-07-05 17:12:00,88.0,70.9,30.02,NNW,346,0.0,0.0,57,0.00,,---,0.00,69.00,VWS V14.01,2013-07-05 21:12:00,
2013-07-05 17:17:00,87.8,71.7,30.02,WSW,250,0.0,0.0,59,0.00,,---,0.00,62.00,VWS V14.01,2013-07-05 21:17:00,
2013-07-05 17:22:00,87.6,70.5,30.02,WSW,250,0.0,1.0,57,0.00,,---,0.00,70.00,VWS V14.01,2013-07-05 21:22:00,
2013-07-05 17:27:00,87.4,70.8,30.02,WSW,250,0.0,1.0,58,0.00,,---,0.00,54.00,VWS V14.01,2013-07-05 21:27:00,
2013-07-05 17:32:00,87.4,70.8,30.02,WSW,250,0.0,0.0,58,0.00,,---,0.00,49.00,VWS V14.01,2013-07-05 21:32:00,
2013-07-05 17:37:00,87.2,71.6,30.02,WSW,250,0.0,0.0,60,0.00,,---,0.00,63.00,VWS V14.01,2013-07-05 21:37:00,
2013-07-05 17:42:00,86.8,70.8,30.02,WSW,250,0.0,0.0,59,0.00,,---,0.00,120.00,VWS V14.01,2013-07-05 21:42:00,
2013-07-05 17:47:00,86.8,71.3,30.02,SE,134,0.0,0.0,60,0.00,,---,0.00,53.00,VWS V14.01,2013-07-05 21:47:00,
2013-07-05 17:55:00,86.3,70.3,30.02,SE,134,0.0,0.0,59,0.00,,---,0.00,49.00,VWS V14.01,2013-07-05 21:55:00,
2013-07-05 18:01:00,86.1,70.6,30.02,SE,134,0.0,0.0,60,0.00,,---,0.00,39.00,VWS V14.01,2013-07-05 22:01:00,
2013-07-05 18:06:00,86.1,70.6,30.02,SE,134,0.0,0.0,60,0.00,,---,0.00,32.00,VWS V14.01,2013-07-05 22:06:00,
2013-07-05 18:11:00,85.9,69.4,30.02,SE,134,0.0,0.0,58,0.00,,---,0.00,35.00,VWS V14.01,2013-07-05 22:11:00,
2013-07-05 18:16:00,85.9,70.4,30.02,SE,134,0.0,0.0,60,0.00,,---,0.00,76.00,VWS V14.01,2013-07-05 22:16:00,
2013-07-05 18:21:00,85.7,70.7,30.02,SE,136,0.0,0.0,61,0.00,,---,0.00,23.00,VWS V14.01,2013-07-05 22:21:00,
2013-07-05 18:25:00,85.5,70.5,30.02,SE,136,0.0,0.0,61,0.00,,---,0.00,16.00,VWS V14.01,2013-07-05 22:25:00,
2013-07-05 18:31:00,85.3,69.8,30.03,SE,136,0.0,0.0,60,0.00,,---,0.00,16.00,VWS V14.01,2013-07-05 22:31:00,
2013-07-05 18:36:00,85.1,70.6,30.03,SE,136,0.0,0.0,62,0.00,,---,0.00,19.00,VWS V14.01,2013-07-05 22:36:00,
2013-07-05 18:41:00,84.7,69.8,30.03,SE,136,0.0,0.0,61,0.00,,---,0.00,18.00,VWS V14.01,2013-07-05 22:41:00,
2013-07-05 18:46:00,84.5,70.5,30.02,SE,136,0.0,0.0,63,0.00,,---,0.00,19.00,VWS V14.01,2013-07-05 22:46:00,
2013-07-05 18:51:00,83.9,70.4,30.02,SE,136,0.0,0.0,64,0.00,,---,0.00,21.00,VWS V14.01,2013-07-05 22:51:00,
2013-07-05 18:56:00,83.6,70.6,30.02,SE,136,0.0,0.0,65,0.00,,---,0.00,35.00,VWS V14.01,2013-07-05 22:56:00,
2013-07-05 19:01:00,83.2,70.2,30.02,SE,136,0.0,0.0,65,0.00,,---,0.00,25.00,VWS V14.01,2013-07-05 23:01:00,
2013-07-05 19:06:00,82.8,69.8,30.02,SE,136,0.0,0.0,65,0.00,,---,0.00,19.00,VWS V14.01,2013-07-05 23:06:00,
2013-07-05 19:11:00,82.4,69.9,30.02,SE,136,0.0,0.0,66,0.00,,---,0.00,14.00,VWS V14.01,2013-07-05 23:11:00,
2013-07-05 19:16:00,82.2,70.2,30.02,SE,136,0.0,0.0,67,0.00,,---,0.00,11.00,VWS V14.01,2013-07-05 23:16:00,
2013-07-05 19:21:00,82.2,70.6,30.02,SE,136,0.0,0.0,68,0.00,,---,0.00,11.00,VWS V14.01,2013-07-05 23:21:00,
2013-07-05 19:26:00,82.0,71.3,30.01,SE,136,0.0,0.0,70,0.00,,---,0.00,9.00,VWS V14.01,2013-07-05 23:26:00,
2013-07-05 19:31:00,81.8,71.1,30.01,SE,136,0.0,0.0,70,0.00,,---,0.00,7.00,VWS V14.01,2013-07-05 23:31:00,
2013-07-05 19:36:00,81.4,71.1,30.01,SE,136,0.0,0.0,71,0.00,,---,0.00,7.00,VWS V14.01,2013-07-05 23:36:00,
2013-07-05 19:41:00,81.0,71.1,30.01,SE,136,0.0,0.0,72,0.00,,---,0.00,7.00,VWS V14.01,2013-07-05 23:41:00,
2013-07-05 19:46:00,80.7,71.2,30.01,SE,136,0.0,0.0,73,0.00,,---,0.00,9.00,VWS V14.01,2013-07-05 23:46:00,
2013-07-05 19:51:00,80.3,71.3,30.01,SE,136,0.0,0.0,74,0.00,,---,0.00,11.00,VWS V14.01,2013-07-05 23:51:00,
2013-07-05 19:56:00,80.1,71.1,30.02,SE,136,0.0,0.0,74,0.00,,---,0.00,11.00,VWS V14.01,2013-07-05 23:56:00,
2013-07-05 20:01:00,79.9,71.3,30.02,SE,136,0.0,0.0,75,0.00,,---,0.00,11.00,VWS V14.01,2013-07-06 00:01:00,
2013-07-05 20:06:00,79.7,71.5,30.02,SE,136,0.0,0.0,76,0.00,,---,0.00,9.00,VWS V14.01,2013-07-06 00:06:00,
2013-07-05 20:11:00,79.4,71.2,30.02,SE,136,0.0,0.0,76,0.00,,---,0.00,7.00,VWS V14.01,2013-07-06 00:11:00,
2013-07-05 20:16:00,79.2,71.0,30.02,SE,136,0.0,0.0,76,0.00,,---,0.00,5.00,VWS V14.01,2013-07-06 00:16:00,
2013-07-05 20:21:00,79.2,71.4,30.02,SE,136,0.0,0.0,77,0.00,,---,0.00,0.00,VWS V14.01,2013-07-06 00:21:00,
2013-07-05 20:26:00,79.0,71.2,30.01,SE,136,0.0,0.0,77,0.00,,---,0.00,0.00,VWS V14.01,2013-07-06 00:26:00,
2013-07-05 20:31:00,78.8,71.0,30.01,SE,136,0.0,0.0,77,0.00,,---,0.00,0.00,VWS V14.01,2013-07-06 00:31:00,
2013-07-05 20:36:00,78.6,71.2,30.02,SE,136,0.0,0.0,78,0.00,,---,0.00,0.00,VWS V14.01,2013-07-06 00:36:00,
2013-07-05 20:41:00,78.6,71.2,30.02,SE,136,0.0,0.0,78,0.00,,---,0.00,0.00,VWS V14.01,2013-07-06 00:41:00,
2013-07-05 20:46:00,78.4,70.6,30.03,SE,136,0.0,0.0,77,0.00,,---,0.00,0.00,VWS V14.01,2013-07-06 00:46:00,
2013-07-05 20:51:00,78.1,69.9,30.03,SE,136,0.0,0.0,76,0.00,,---,0.00,0.00,VWS V14.01,2013-07-06 00:51:00,
2013-07-05 20:56:00,78.1,69.9,30.03,SE,136,0.0,0.0,76,0.00,,---,0.00,0.00,VWS V14.01,2013-07-06 00:56:00,
2013-07-05 21:01:00,77.9,70.1,30.04,SE,136,0.0,0.0,77,0.00,,---,0.00,0.00,VWS V14.01,2013-07-06 01:01:00,
2013-07-05 21:06:00,77.9,70.5,30.04,SE,136,0.0,0.0,78,0.00,,---,0.00,0.00,VWS V14.01,2013-07-06 01:06:00,
2013-07-05 21:11:00,77.7,70.3,30.04,SE,136,0.0,0.0,78,0.00,,---,0.00,0.00,VWS V14.01,2013-07-06 01:11:00,
2013-07-05 21:16:00,77.5,70.1,30.04,SE,136,0.0,0.0,78,0.00,,---,0.00,0.00,VWS V14.01,2013-07-06 01:16:00,
2013-07-05 21:21:00,77.3,70.3,30.04,SE,136,0.0,0.0,79,0.00,,---,0.00,0.00,VWS V14.01,2013-07-06 01:21:00,
2013-07-05 21:26:00,77.2,70.2,30.05,SE,136,0.0,0.0,79,0.00,,---,0.00,0.00,VWS V14.01,2013-07-06 01:26:00,
2013-07-05 21:31:00,77.0,70.0,30.04,SE,136,0.0,0.0,79,0.00,,---,0.00,0.00,VWS V14.01,2013-07-06 01:31:00,
2013-07-05 21:36:00,76.8,70.2,30.05,SE,136,0.0,0.0,80,0.00,,---,0.00,0.00,VWS V14.01,2013-07-06 01:36:00,
2013-07-05 21:41:00,76.8,70.2,30.05,SE,136,0.0,0.0,80,0.00,,---,0.00,0.00,VWS V14.01,2013-07-06 01:41:00,
2013-07-05 21:46:00,76.6,70.0,30.05,SE,136,0.0,0.0,80,0.00,,---,0.00,0.00,VWS V14.01,2013-07-06 01:46:00,
2013-07-05 21:51:00,76.4,69.8,30.05,SE,136,0.0,0.0,80,0.00,,---,0.00,0.00,VWS V14.01,2013-07-06 01:51:00,
2013-07-05 21:56:00,76.4,69.8,30.05,SE,136,0.0,0.0,80,0.00,,---,0.00,0.00,VWS V14.01,2013-07-06 01:56:00,
2013-07-05 22:01:00,76.3,69.7,30.05,SE,136,0.0,0.0,80,0.00,,---,0.00,0.00,VWS V14.01,2013-07-06 02:01:00,
2013-07-05 22:06:00,76.3,69.7,30.05,SE,136,0.0,0.0,80,0.00,,---,0.00,0.00,VWS V14.01,2013-07-06 02:06:00,
2013-07-05 22:07:00,76.3,69.7,30.05,SE,136,0.0,0.0,80,0.00,,---,0.00,0.00,VWS V14.01,2013-07-06 02:07:00,
2013-07-05 22:12:00,76.3,70.1,30.04,SE,136,0.0,0.0,81,0.00,,---,0.00,0.00,VWS V14.01,2013-07-06 02:12:00,
2013-07-05 22:17:00,76.1,69.8,30.04,SE,136,0.0,0.0,81,0.00,,---,0.00,0.00,VWS V14.01,2013-07-06 02:17:00,
2013-07-05 22:22:00,76.1,70.2,30.04,SE,136,0.0,0.0,82,0.00,,---,0.00,0.00,VWS V14.01,2013-07-06 02:22:00,
2013-07-05 22:27:00,75.9,70.0,30.04,SE,136,0.0,0.0,82,0.00,,---,0.00,0.00,VWS V14.01,2013-07-06 02:27:00,
2013-07-05 22:32:00,75.7,69.8,30.04,SE,136,0.0,0.0,82,0.00,,---,0.00,0.00,VWS V14.01,2013-07-06 02:32:00,
2013-07-05 22:37:00,75.7,69.8,30.03,SE,136,0.0,0.0,82,0.00,,---,0.00,0.00,VWS V14.01,2013-07-06 02:37:00,
2013-07-05 22:42:00,75.6,69.7,30.04,SE,136,0.0,0.0,82,0.00,,---,0.00,0.00,VWS V14.01,2013-07-06 02:42:00,
2013-07-05 22:47:00,75.4,69.5,30.04,SE,136,0.0,0.0,82,0.00,,---,0.00,0.00,VWS V14.01,2013-07-06 02:47:00,
2013-07-05 22:48:00,75.4,69.5,30.04,SE,136,0.0,0.0,82,0.00,,---,0.00,0.00,VWS V14.01,2013-07-06 02:48:00,
2013-07-05 22:53:00,75.4,69.2,30.04,SE,136,0.0,0.0,81,0.00,,---,0.00,0.00,VWS V14.01,2013-07-06 02:53:00,
2013-07-05 22:58:00,75.2,69.3,30.04,SE,136,0.0,0.0,82,0.00,,---,0.00,0.00,VWS V14.01,2013-07-06 02:58:00,
2013-07-05 23:03:00,75.2,69.3,30.04,SE,136,0.0,0.0,82,0.00,,---,0.00,0.00,VWS V14.01,2013-07-06 03:03:00,
2013-07-05 23:08:00,75.0,69.5,30.04,SE,136,0.0,0.0,83,0.00,,---,0.00,0.00,VWS V14.01,2013-07-06 03:08:00,
2013-07-05 23:13:00,75.0,69.5,30.05,SE,136,0.0,0.0,83,0.00,,---,0.00,0.00,VWS V14.01,2013-07-06 03:13:00,
2013-07-05 23:18:00,74.9,69.4,30.04,SE,136,0.0,0.0,83,0.00,,---,0.00,0.00,VWS V14.01,2013-07-06 03:18:00,
2013-07-05 23:23:00,74.9,69.4,30.04,SE,136,0.0,0.0,83,0.00,,---,0.00,0.00,VWS V14.01,2013-07-06 03:23:00,
2013-07-05 23:28:00,74.7,69.2,30.04,SE,136,0.0,0.0,83,0.00,,---,0.00,0.00,VWS V14.01,2013-07-06 03:28:00,
2013-07-05 23:33:00,74.7,69.6,30.05,SE,136,0.0,0.0,84,0.00,,---,0.00,0.00,VWS V14.01,2013-07-06 03:33:00,
2013-07-05 23:38:00,74.5,69.3,30.05,SE,136,0.0,0.0,84,0.00,,---,0.00,0.00,VWS V14.01,2013-07-06 03:38:00,
2013-07-05 23:43:00,74.3,69.2,30.05,SE,136,0.0,0.0,84,0.00,,---,0.00,0.00,VWS V14.01,2013-07-06 03:43:00,
2013-07-05 23:48:00,74.3,69.2,30.05,SE,136,0.0,0.0,84,0.00,,---,0.00,0.00,VWS V14.01,2013-07-06 03:48:00,
2013-07-05 23:53:00,74.2,69.4,30.05,SE,136,0.0,0.0,85,0.00,,---,0.00,0.00,VWS V14.01,2013-07-06 03:53:00,
2013-07-05 23:58:00,74.0,69.2,30.05,SE,136,0.0,0.0,85,0.00,,---,0.00,0.00,VWS V14.01,2013-07-06 03:58:00,